Time;durP1;ratioP1;P1;durP2;ratioP2;P2;SDS_P1;SDS_P2;PMS_P1;PMS_P2;Temp;Humidity;BMP_temperature;BMP_pressure;BME280_temperature;BME280_humidity;BME280_pressure;Samples;Min_cycle;Max_cycle;Signal;HPM_P1;HPM_P2
2022/07/06 00:02:22;;;;;;;4.97;2.53;;;21.20;99.90;;;;;;4973537;28;20199;-70
2022/07/06 00:04:48;;;;;;;7.73;2.30;;;21.10;98.90;;;;;;4951467;28;20187;-70
2022/07/06 00:07:15;;;;;;;4.77;2.07;;;21.00;97.90;;;;;;4968652;28;20805;-69
2022/07/06 00:09:42;;;;;;;5.57;2.33;;;21.00;97.00;;;;;;4966742;28;20273;-70
2022/07/06 00:12:09;;;;;;;4.07;2.30;;;21.00;96.50;;;;;;4960124;28;20221;-70
2022/07/06 00:14:36;;;;;;;8.27;2.30;;;21.00;95.80;;;;;;4956632;28;20210;-69
2022/07/06 00:17:03;;;;;;;3.50;2.00;;;20.90;95.40;;;;;;4952229;28;20227;-71
2022/07/06 00:19:29;;;;;;;6.37;2.00;;;20.80;95.10;;;;;;4959736;28;20202;-70
2022/07/06 00:21:55;;;;;;;5.40;2.20;;;20.80;94.80;;;;;;4969991;28;20282;-71
2022/07/06 00:24:22;;;;;;;3.50;2.10;;;20.80;94.60;;;;;;4949443;28;20202;-71
2022/07/06 00:26:48;;;;;;;6.53;2.30;;;20.70;94.50;;;;;;4958202;28;20202;-70
2022/07/06 00:29:15;;;;;;;4.00;2.00;;;20.60;94.20;;;;;;4979262;28;20295;-70
2022/07/06 00:31:42;;;;;;;5.40;2.07;;;20.60;94.00;;;;;;4981950;28;20227;-71
2022/07/06 00:34:08;;;;;;;5.33;2.07;;;20.50;93.90;;;;;;4957499;28;20205;-73
2022/07/06 00:36:35;;;;;;;4.80;2.13;;;20.50;93.90;;;;;;4955344;28;20231;-72
2022/07/06 00:39:01;;;;;;;2.87;2.00;;;20.50;93.90;;;;;;4939004;28;20675;-71
2022/07/06 00:41:27;;;;;;;3.67;2.30;;;20.50;94.00;;;;;;4969428;28;20856;-70
2022/07/06 00:43:57;;;;;;;3.87;2.20;;;20.60;94.20;;;;;;4955001;28;20302;-70
2022/07/06 00:46:31;;;;;;;5.13;2.10;;;20.70;94.30;;;;;;4954077;28;20199;-70
2022/07/06 00:48:58;;;;;;;5.57;2.27;;;20.70;94.50;;;;;;4942212;29;20274;-70
2022/07/06 00:51:37;;;;;;;3.73;2.30;;;20.70;94.70;;;;;;4951231;28;20978;-69
2022/07/06 00:54:05;;;;;;;4.27;2.30;;;20.70;94.90;;;;;;4957842;28;20190;-72
2022/07/06 00:56:34;;;;;;;2.90;2.10;;;20.70;94.80;;;;;;4956199;28;20211;-72
2022/07/06 00:59:02;;;;;;;4.60;2.47;;;20.60;94.70;;;;;;4960045;28;20194;-70
2022/07/06 01:01:29;;;;;;;4.47;2.30;;;20.60;94.60;;;;;;4976815;28;20195;-71
2022/07/06 01:03:56;;;;;;;5.00;2.47;;;20.60;94.60;;;;;;4948827;29;20249;-71
2022/07/06 01:06:22;;;;;;;4.77;2.30;;;20.60;94.80;;;;;;4953930;28;20201;-70
2022/07/06 01:08:50;;;;;;;6.67;2.13;;;20.70;95.10;;;;;;4958581;28;20652;-70
2022/07/06 01:11:19;;;;;;;4.83;2.10;;;20.70;95.20;;;;;;4951589;29;20191;-70
2022/07/06 01:13:47;;;;;;;5.20;2.73;;;20.70;95.50;;;;;;4932453;29;20567;-70
2022/07/06 01:16:14;;;;;;;4.83;2.30;;;20.60;95.70;;;;;;4948527;29;20227;-69
2022/07/06 01:18:42;;;;;;;4.90;2.40;;;20.70;95.80;;;;;;4940885;28;20197;-69
2022/07/06 01:21:14;;;;;;;4.07;2.27;;;20.70;95.80;;;;;;4963429;28;20269;-70
2022/07/06 01:23:49;;;;;;;6.67;2.50;;;20.70;95.70;;;;;;4952805;28;20282;-71
2022/07/06 01:26:19;;;;;;;7.87;2.53;;;20.70;95.50;;;;;;4957327;28;22386;-70
2022/07/06 01:28:48;;;;;;;4.33;2.30;;;20.80;95.50;;;;;;4966647;28;20233;-72
2022/07/06 01:31:26;;;;;;;3.27;2.20;;;20.80;95.30;;;;;;4944937;28;20246;-73
2022/07/06 01:33:56;;;;;;;5.87;2.70;;;20.80;95.30;;;;;;4966766;28;20206;-69
2022/07/06 01:36:23;;;;;;;3.67;2.20;;;20.80;95.30;;;;;;4963633;28;20222;-70
2022/07/06 01:38:52;;;;;;;3.93;2.33;;;20.70;95.20;;;;;;4933154;28;20191;-71
2022/07/06 01:41:19;;;;;;;12.53;2.67;;;20.70;95.20;;;;;;4955287;28;20222;-71
2022/07/06 01:43:46;;;;;;;4.20;2.30;;;20.70;95.10;;;;;;4967286;28;20207;-70
2022/07/06 01:46:13;;;;;;;3.87;2.00;;;20.70;94.30;;;;;;4949419;28;20213;-69
2022/07/06 01:48:40;;;;;;;3.60;2.23;;;20.70;93.40;;;;;;4959066;28;20191;-69
2022/07/06 01:51:07;;;;;;;4.30;1.63;;;20.60;93.00;;;;;;4959357;28;20625;-72
2022/07/06 01:53:34;;;;;;;2.90;1.93;;;20.60;92.70;;;;;;4972996;28;20207;-73
2022/07/06 01:56:01;;;;;;;2.93;1.90;;;20.60;92.50;;;;;;4967925;28;20253;-72
2022/07/06 01:58:27;;;;;;;2.53;1.67;;;20.50;92.00;;;;;;4953462;28;20187;-73
2022/07/06 02:00:55;;;;;;;4.90;1.90;;;20.50;91.90;;;;;;4957845;28;20186;-71
2022/07/06 02:03:22;;;;;;;3.27;2.20;;;20.50;92.10;;;;;;4957992;28;20199;-69
2022/07/06 02:05:49;;;;;;;6.13;2.00;;;20.40;91.50;;;;;;4952705;28;20202;-71
2022/07/06 02:08:16;;;;;;;2.80;2.13;;;20.40;91.10;;;;;;4956595;28;20285;-71
2022/07/06 02:10:42;;;;;;;3.33;2.00;;;20.30;90.70;;;;;;4973786;28;20202;-70
2022/07/06 02:13:09;;;;;;;2.00;1.80;;;20.30;90.60;;;;;;4950856;28;20249;-69
2022/07/06 02:15:36;;;;;;;2.80;1.70;;;20.30;90.80;;;;;;4949549;29;20273;-71
2022/07/06 02:18:02;;;;;;;5.20;1.80;;;20.30;91.10;;;;;;4958336;28;20191;-72
2022/07/06 02:20:28;;;;;;;7.00;2.00;;;20.30;91.30;;;;;;4957766;28;20197;-70
2022/07/06 02:22:55;;;;;;;5.43;2.13;;;20.30;91.50;;;;;;4965297;28;20292;-70
2022/07/06 02:25:23;;;;;;;3.10;1.90;;;20.30;91.70;;;;;;4958997;28;20195;-70
2022/07/06 02:27:49;;;;;;;4.33;1.80;;;20.30;91.90;;;;;;4968816;28;20248;-71
2022/07/06 02:30:16;;;;;;;4.00;2.07;;;20.30;92.10;;;;;;4953225;28;20279;-70
2022/07/06 02:32:43;;;;;;;6.90;2.20;;;20.30;92.40;;;;;;4953277;28;20197;-71
2022/07/06 02:35:09;;;;;;;3.73;2.17;;;20.30;92.50;;;;;;4955958;28;20194;-70
2022/07/06 02:37:37;;;;;;;3.80;1.73;;;20.40;92.20;;;;;;4956884;28;20663;-70
2022/07/06 02:40:05;;;;;;;3.07;2.03;;;20.40;92.00;;;;;;4956657;28;20191;-70
2022/07/06 02:42:32;;;;;;;2.73;1.80;;;20.30;91.90;;;;;;4947710;28;20233;-70
2022/07/06 02:44:59;;;;;;;5.67;1.93;;;20.30;91.10;;;;;;4959514;28;20580;-70
2022/07/06 02:47:26;;;;;;;4.03;2.00;;;20.30;90.50;;;;;;4978446;28;20195;-71
2022/07/06 02:49:53;;;;;;;4.43;2.20;;;20.30;90.30;;;;;;4949915;28;20281;-72
2022/07/06 02:52:19;;;;;;;8.80;2.07;;;20.30;90.30;;;;;;4959893;28;20545;-70
2022/07/06 02:54:46;;;;;;;2.80;1.70;;;20.30;88.70;;;;;;4969517;28;20195;-71
2022/07/06 02:57:13;;;;;;;5.10;1.70;;;20.30;88.40;;;;;;4956664;28;20348;-72
2022/07/06 02:59:39;;;;;;;3.40;1.97;;;20.30;88.30;;;;;;4961621;28;20189;-72
2022/07/06 03:02:06;;;;;;;4.80;1.83;;;20.40;87.20;;;;;;4957770;28;20202;-71
2022/07/06 03:04:33;;;;;;;1.80;1.53;;;20.40;85.50;;;;;;4956025;28;20321;-72
2022/07/06 03:07:00;;;;;;;3.13;1.73;;;20.40;84.40;;;;;;4967250;28;20178;-72
2022/07/06 03:09:27;;;;;;;1.90;1.70;;;20.40;84.40;;;;;;4966126;28;20302;-70
2022/07/06 03:11:53;;;;;;;3.97;1.67;;;20.50;84.20;;;;;;4952419;28;20226;-71
2022/07/06 03:14:20;;;;;;;3.73;1.97;;;20.50;83.80;;;;;;4958527;28;20186;-70
2022/07/06 03:16:46;;;;;;;2.03;1.63;;;20.50;83.80;;;;;;4963134;28;20325;-69
2022/07/06 03:19:13;;;;;;;1.83;1.50;;;20.60;84.30;;;;;;4952355;28;20198;-71
2022/07/06 03:21:39;;;;;;;2.93;1.90;;;20.50;84.90;;;;;;4967160;28;20198;-71
2022/07/06 03:24:05;;;;;;;3.90;1.60;;;20.50;85.90;;;;;;4949990;28;20229;-70
2022/07/06 03:26:32;;;;;;;2.77;1.50;;;20.50;86.30;;;;;;4970764;28;20663;-69
2022/07/06 03:28:59;;;;;;;4.83;1.80;;;20.50;86.40;;;;;;4950864;28;20802;-71
2022/07/06 03:31:26;;;;;;;6.17;1.77;;;20.50;87.00;;;;;;4950204;28;20195;-72
2022/07/06 03:33:53;;;;;;;1.87;1.60;;;20.60;87.80;;;;;;4948759;28;20206;-70
2022/07/06 03:36:20;;;;;;;3.73;1.70;;;20.50;88.00;;;;;;4977308;28;20213;-72
2022/07/06 03:38:46;;;;;;;2.70;1.93;;;20.50;88.40;;;;;;4967315;28;20179;-70
2022/07/06 03:41:13;;;;;;;2.30;1.73;;;20.50;88.60;;;;;;4971856;28;20953;-71
2022/07/06 03:43:39;;;;;;;3.07;1.93;;;20.50;88.70;;;;;;4952765;28;20286;-71
2022/07/06 03:46:11;;;;;;;3.20;1.80;;;20.50;89.20;;;;;;4948564;28;20206;-70
2022/07/06 03:48:37;;;;;;;5.93;2.27;;;20.50;89.60;;;;;;4961503;28;20198;-70
2022/07/06 03:51:03;;;;;;;3.07;1.80;;;20.60;90.10;;;;;;4972551;28;20190;-72
2022/07/06 03:53:31;;;;;;;2.53;1.90;;;20.60;90.30;;;;;;4952449;28;20260;-71
2022/07/06 03:58:43;;;;;;;2.60;1.53;;;20.60;90.60;;;;;;4948511;29;20269;-70
2022/07/06 04:01:10;;;;;;;4.10;2.00;;;20.60;90.80;;;;;;4948279;28;20200;-70
2022/07/06 04:03:36;;;;;;;2.40;1.90;;;20.60;90.90;;;;;;4932664;29;20190;-70
2022/07/06 04:06:03;;;;;;;5.27;2.20;;;20.70;91.00;;;;;;4944214;28;20188;-72
2022/07/06 04:08:29;;;;;;;4.97;2.43;;;20.70;91.20;;;;;;4987963;28;20619;-69
2022/07/06 04:10:55;;;;;;;2.27;1.83;;;20.80;91.40;;;;;;4972296;28;20978;-70
2022/07/06 04:13:25;;;;;;;5.87;1.90;;;20.80;91.50;;;;;;4951435;29;20225;-69
2022/07/06 04:15:52;;;;;;;1.90;1.80;;;20.90;91.70;;;;;;4941693;28;20301;-72
2022/07/06 04:18:20;;;;;;;3.47;1.87;;;21.00;91.80;;;;;;4969368;28;20699;-72
2022/07/06 04:20:46;;;;;;;11.30;2.40;;;21.00;92.00;;;;;;4959982;28;20700;-70
2022/07/06 04:23:12;;;;;;;7.17;1.90;;;21.10;92.10;;;;;;4951413;28;20186;-69
2022/07/06 04:25:38;;;;;;;4.10;2.00;;;21.10;92.40;;;;;;4956285;28;20663;-70
2022/07/06 04:28:05;;;;;;;2.43;1.90;;;21.20;92.70;;;;;;4962125;28;20190;-72
2022/07/06 04:30:31;;;;;;;5.00;2.00;;;21.30;93.00;;;;;;4961393;28;20197;-72
2022/07/06 04:32:58;;;;;;;6.27;2.23;;;21.40;93.20;;;;;;4958918;28;20194;-68
2022/07/06 04:35:24;;;;;;;3.67;1.70;;;21.60;93.30;;;;;;4954963;28;20691;-71
2022/07/06 04:37:51;;;;;;;2.43;1.87;;;21.70;93.40;;;;;;4960445;28;20190;-70
2022/07/06 04:40:17;;;;;;;5.83;2.23;;;21.80;93.80;;;;;;4955674;28;20197;-70
2022/07/06 04:42:44;;;;;;;2.97;2.07;;;22.00;93.90;;;;;;4958616;28;20197;-73
2022/07/06 04:45:13;;;;;;;3.70;2.07;;;22.00;94.30;;;;;;4969456;28;20604;-72
2022/07/06 04:47:39;;;;;;;2.80;1.87;;;22.20;94.40;;;;;;4949426;28;20194;-71
2022/07/06 04:50:06;;;;;;;2.93;1.87;;;22.30;93.40;;;;;;4959464;28;20195;-72
2022/07/06 04:52:33;;;;;;;4.10;2.30;;;22.40;93.30;;;;;;4965408;28;20655;-70
2022/07/06 04:54:59;;;;;;;3.97;2.10;;;22.50;92.80;;;;;;4951284;28;20314;-69
2022/07/06 04:57:25;;;;;;;3.80;1.80;;;22.60;92.80;;;;;;4978228;28;20244;-72
2022/07/06 04:59:53;;;;;;;2.60;1.90;;;22.70;92.80;;;;;;4954687;28;20187;-71
2022/07/06 05:02:19;;;;;;;5.20;2.30;;;22.70;92.70;;;;;;4950638;28;20959;-70
2022/07/06 05:04:45;;;;;;;2.80;2.03;;;22.80;92.40;;;;;;4931873;29;20931;-74
2022/07/06 05:07:11;;;;;;;2.33;1.70;;;22.90;92.40;;;;;;4942960;28;20656;-70
2022/07/06 05:09:38;;;;;;;3.23;2.00;;;23.00;92.70;;;;;;4952358;28;20735;-70
2022/07/06 05:12:05;;;;;;;2.50;1.80;;;23.00;92.70;;;;;;4955842;28;20688;-71
2022/07/06 05:14:31;;;;;;;4.23;2.23;;;23.10;92.70;;;;;;4955886;28;20186;-70
2022/07/06 05:16:57;;;;;;;2.50;2.10;;;23.10;92.80;;;;;;4948104;28;20723;-69
2022/07/06 05:19:24;;;;;;;4.17;2.07;;;23.20;92.90;;;;;;4951391;28;20191;-71
2022/07/06 05:21:50;;;;;;;3.75;2.00;;;23.20;92.00;;;;;;4958383;28;20734;-71
2022/07/06 05:24:17;;;;;;;2.93;1.87;;;23.20;91.70;;;;;;4952982;28;20191;-69
2022/07/06 05:26:43;;;;;;;3.03;1.90;;;23.30;90.20;;;;;;4960343;28;20686;-72
2022/07/06 05:29:09;;;;;;;3.13;1.98;;;23.30;90.70;;;;;;4950702;28;20199;-70
2022/07/06 05:31:36;;;;;;;4.70;2.13;;;23.40;91.10;;;;;;4958898;28;20223;-73
2022/07/06 05:34:03;;;;;;;5.00;2.03;;;23.40;90.70;;;;;;4947645;29;20218;-71
2022/07/06 05:36:29;;;;;;;3.63;2.20;;;23.50;90.30;;;;;;4955761;28;20301;-71
2022/07/06 05:38:55;;;;;;;4.13;2.20;;;23.60;90.10;;;;;;4956256;28;20197;-71
2022/07/06 05:41:22;;;;;;;3.50;1.93;;;23.70;88.40;;;;;;4975513;28;20186;-72
2022/07/06 05:43:49;;;;;;;4.18;2.22;;;23.80;88.50;;;;;;4961035;28;20786;-71
2022/07/06 05:46:15;;;;;;;5.75;2.40;;;23.90;87.90;;;;;;4960704;28;20738;-71
2022/07/06 05:51:26;;;;;;;7.50;2.20;;;24.00;88.30;;;;;;4948941;29;20202;-71
2022/07/06 05:53:52;;;;;;;5.72;2.00;;;24.20;86.90;;;;;;4959708;28;20198;-73
2022/07/06 05:56:19;;;;;;;8.45;2.30;;;24.40;87.00;;;;;;4954402;28;20210;-71
2022/07/06 05:58:45;;;;;;;7.03;2.03;;;24.50;88.50;;;;;;4962114;28;20234;-74
2022/07/06 06:01:11;;;;;;;4.15;2.00;;;24.50;88.80;;;;;;4949531;28;20202;-73
2022/07/06 06:03:38;;;;;;;6.15;2.33;;;24.70;89.00;;;;;;4957274;28;20591;-70
2022/07/06 06:06:05;;;;;;;5.68;2.10;;;24.70;89.20;;;;;;4958359;28;20191;-73
2022/07/06 06:08:31;;;;;;;8.02;2.53;;;24.80;88.40;;;;;;4963671;28;20808;-69
2022/07/06 06:10:57;;;;;;;8.52;2.47;;;24.90;88.60;;;;;;4962509;28;20697;-72
2022/07/06 06:13:24;;;;;;;6.22;2.72;;;25.00;87.40;;;;;;4956684;28;20286;-73
2022/07/06 06:15:50;;;;;;;6.32;2.33;;;25.10;86.50;;;;;;4952740;28;20277;-69
2022/07/06 06:18:18;;;;;;;5.00;2.20;;;25.30;83.30;;;;;;4959175;28;20201;-69
2022/07/06 06:20:46;;;;;;;7.13;2.03;;;25.30;84.80;;;;;;4956430;28;20210;-70
2022/07/06 06:23:12;;;;;;;10.20;2.42;;;25.50;85.00;;;;;;4947192;29;20191;-71
2022/07/06 06:25:39;;;;;;;5.53;2.47;;;25.60;83.90;;;;;;4970230;28;20194;-72
2022/07/06 06:28:11;;;;;;;2.25;1.90;;;25.70;83.00;;;;;;4952871;28;20198;-69
2022/07/06 06:30:38;;;;;;;3.80;2.13;;;25.70;86.00;;;;;;4954878;28;20190;-71
2022/07/06 06:33:17;;;;;;;5.25;1.75;;;25.70;83.30;;;;;;4954320;28;20201;-72
2022/07/06 06:35:49;;;;;;;4.82;2.42;;;25.70;84.50;;;;;;4960597;28;20285;-70
2022/07/06 06:38:18;;;;;;;5.25;2.28;;;25.70;84.40;;;;;;4940509;28;20196;-70
2022/07/06 06:40:44;;;;;;;3.33;2.13;;;25.80;83.10;;;;;;4952212;28;20197;-69
2022/07/06 06:43:11;;;;;;;4.43;2.10;;;25.90;82.90;;;;;;4955512;28;20195;-74
2022/07/06 06:45:38;;;;;;;5.78;1.60;;;26.00;82.20;;;;;;4958869;28;20552;-73
2022/07/06 06:48:05;;;;;;;5.53;2.40;;;26.00;83.30;;;;;;4953879;28;20206;-70
2022/07/06 06:50:31;;;;;;;6.13;2.28;;;26.20;83.00;;;;;;4958651;28;20190;-73
2022/07/06 06:52:58;;;;;;;6.38;1.90;;;26.30;81.80;;;;;;4964944;28;20191;-74
2022/07/06 06:55:24;;;;;;;5.30;2.53;;;26.40;83.50;;;;;;4955575;28;20253;-69
2022/07/06 06:57:50;;;;;;;4.38;2.15;;;26.60;82.60;;;;;;4963708;28;20195;-71
2022/07/06 07:00:17;;;;;;;6.93;2.20;;;26.80;80.90;;;;;;4947803;28;20253;-72
2022/07/06 07:02:45;;;;;;;4.88;2.40;;;26.80;82.20;;;;;;4957143;28;20206;-69
2022/07/06 07:05:14;;;;;;;5.90;2.30;;;26.80;86.10;;;;;;4956294;28;20195;-73
2022/07/06 07:07:41;;;;;;;7.47;2.20;;;26.90;87.80;;;;;;4949843;28;20202;-71
2022/07/06 07:10:08;;;;;;;6.45;2.08;;;27.00;88.00;;;;;;4959361;28;20181;-71
2022/07/06 07:12:34;;;;;;;6.80;2.38;;;27.10;90.20;;;;;;4965125;28;20207;-72
2022/07/06 07:15:01;;;;;;;5.05;2.17;;;27.10;91.30;;;;;;4959804;28;20194;-71
2022/07/06 07:17:28;;;;;;;8.50;2.58;;;27.30;91.60;;;;;;4950417;28;20224;-72
2022/07/06 07:19:56;;;;;;;5.30;2.08;;;27.40;90.90;;;;;;4943372;28;20198;-71
2022/07/06 07:22:24;;;;;;;6.32;2.65;;;27.50;90.20;;;;;;4941310;28;20209;-70
2022/07/06 07:24:50;;;;;;;6.88;2.42;;;27.60;90.80;;;;;;4953378;28;20187;-69
2022/07/06 07:27:18;;;;;;;6.07;2.42;;;27.70;91.20;;;;;;4978889;28;20187;-72
2022/07/06 07:29:44;;;;;;;6.30;2.60;;;27.90;92.80;;;;;;4972066;28;20198;-70
2022/07/06 07:32:11;;;;;;;5.75;2.42;;;28.00;93.50;;;;;;4949058;28;20208;-72
2022/07/06 07:34:37;;;;;;;10.65;2.75;;;28.10;94.50;;;;;;4966576;28;20202;-73
2022/07/06 07:37:04;;;;;;;9.27;2.72;;;28.20;94.20;;;;;;4949936;28;20222;-70
2022/07/06 07:39:30;;;;;;;6.15;2.35;;;28.40;93.20;;;;;;4949737;28;20599;-70
2022/07/06 07:41:56;;;;;;;7.20;2.30;;;28.50;93.80;;;;;;4949353;28;20198;-71
2022/07/06 07:44:24;;;;;;;8.30;2.28;;;28.50;93.30;;;;;;4947250;28;20247;-69
2022/07/06 07:46:52;;;;;;;6.25;2.42;;;28.60;92.10;;;;;;4949821;29;20322;-71
2022/07/06 07:49:20;;;;;;;12.50;2.50;;;28.70;91.50;;;;;;4968418;28;20282;-71
2022/07/06 07:51:52;;;;;;;2.85;1.92;;;28.70;90.70;;;;;;4931870;29;20191;-70
2022/07/06 07:54:19;;;;;;;6.63;2.80;;;28.80;91.00;;;;;;4943147;29;20199;-69
2022/07/06 07:56:45;;;;;;;9.48;3.08;;;28.90;91.20;;;;;;4951508;29;20215;-71
2022/07/06 07:59:12;;;;;;;10.52;2.92;;;29.10;94.10;;;;;;4944119;28;20194;-69
2022/07/06 08:01:38;;;;;;;13.82;3.03;;;29.20;94.90;;;;;;4958961;28;20310;-72
2022/07/06 08:04:05;;;;;;;7.45;3.03;;;29.30;94.80;;;;;;4952104;28;20198;-71
2022/07/06 08:06:31;;;;;;;13.43;2.90;;;29.40;96.10;;;;;;4950419;28;20286;-70
2022/07/06 08:08:59;;;;;;;11.75;3.05;;;29.50;96.10;;;;;;4935988;29;20217;-72
2022/07/06 08:11:25;;;;;;;7.93;3.30;;;29.50;96.90;;;;;;4951034;28;20225;-71
2022/07/06 08:13:51;;;;;;;6.18;3.00;;;29.60;95.60;;;;;;4952680;28;20206;-71
2022/07/06 08:16:18;;;;;;;7.22;3.08;;;29.60;96.90;;;;;;4951965;28;20226;-70
2022/07/06 08:18:44;;;;;;;11.40;3.33;;;29.80;97.00;;;;;;4949961;28;20994;-72
2022/07/06 08:21:11;;;;;;;12.68;3.22;;;29.90;95.70;;;;;;4949279;28;20246;-71
2022/07/06 08:23:37;;;;;;;4.82;2.47;;;29.90;97.40;;;;;;4952364;28;20210;-71
2022/07/06 08:26:04;;;;;;;9.50;3.00;;;30.00;92.80;;;;;;4970333;28;20198;-71
2022/07/06 08:28:30;;;;;;;7.18;2.45;;;30.10;95.90;;;;;;4952718;28;20205;-70
2022/07/06 08:30:57;;;;;;;9.88;2.92;;;30.10;93.90;;;;;;4951789;28;20927;-71
2022/07/06 08:33:24;;;;;;;7.68;3.00;;;30.20;93.50;;;;;;4966806;28;20206;-71
2022/07/06 08:35:51;;;;;;;9.40;2.60;;;30.30;95.10;;;;;;4933207;29;22129;-71
2022/07/06 08:38:18;;;;;;;7.97;3.20;;;30.30;93.60;;;;;;4974290;28;20190;-72
2022/07/06 08:40:49;;;;;;;13.95;3.65;;;30.50;96.70;;;;;;4978786;28;20182;-70
2022/07/06 08:43:16;;;;;;;10.77;3.20;;;30.70;97.10;;;;;;4956693;28;20191;-71
2022/07/06 08:45:44;;;;;;;15.52;3.65;;;30.70;96.80;;;;;;4948297;29;20199;-70
2022/07/06 08:48:12;;;;;;;8.43;3.60;;;30.70;98.30;;;;;;4947779;29;20194;-70
2022/07/06 08:50:38;;;;;;;10.18;3.45;;;30.70;99.40;;;;;;4951210;28;20233;-69
2022/07/06 08:53:06;;;;;;;17.52;3.92;;;30.80;99.90;;;;;;4950402;28;20326;-71
2022/07/06 08:55:34;;;;;;;10.43;3.53;;;30.90;99.90;;;;;;4952713;28;20195;-72
2022/07/06 08:58:00;;;;;;;14.85;4.35;;;31.00;99.90;;;;;;4951542;29;20197;-72
2022/07/06 09:00:27;;;;;;;11.82;4.05;;;31.10;99.90;;;;;;4950292;28;20708;-71
2022/07/06 09:02:56;;;;;;;10.73;4.50;;;31.10;99.90;;;;;;4947501;29;20687;-70
2022/07/06 09:05:24;;;;;;;19.20;4.30;;;31.00;99.90;;;;;;4952410;28;20195;-71
2022/07/06 09:07:53;;;;;;;13.13;4.40;;;31.10;99.90;;;;;;4948826;28;20207;-71
2022/07/06 09:10:22;;;;;;;17.30;4.15;;;31.20;99.90;;;;;;4949817;28;20282;-72
2022/07/06 09:12:49;;;;;;;13.85;4.15;;;31.30;99.90;;;;;;4946835;29;20206;-70
2022/07/06 09:15:16;;;;;;;13.45;3.95;;;31.30;99.90;;;;;;4950229;28;20199;-72
2022/07/06 09:17:43;;;;;;;14.57;3.78;;;31.30;99.90;;;;;;4963268;28;20250;-72
2022/07/06 09:20:12;;;;;;;16.00;4.10;;;31.40;99.90;;;;;;4949932;28;20204;-72
2022/07/06 09:22:40;;;;;;;16.42;3.80;;;31.40;99.90;;;;;;4948585;29;20191;-70
2022/07/06 09:25:14;;;;;;;12.57;4.15;;;31.50;99.90;;;;;;4964748;28;20656;-71
2022/07/06 09:27:49;;;;;;;13.82;4.03;;;31.50;99.90;;;;;;4949230;28;20199;-70
2022/07/06 09:30:17;;;;;;;11.18;4.00;;;31.60;99.90;;;;;;4966165;28;20201;-72
2022/07/06 09:32:47;;;;;;;11.68;3.92;;;31.50;99.90;;;;;;4946519;28;20266;-73
2022/07/06 09:35:38;;;;;;;15.90;4.00;;;31.50;99.90;;;;;;4965084;28;20234;-72
2022/07/06 09:38:11;;;;;;;18.55;4.88;;;31.50;99.90;;;;;;4946884;29;20656;-71
2022/07/06 09:40:44;;;;;;;11.80;4.15;;;31.70;99.90;;;;;;4945875;29;20206;-71
2022/07/06 09:43:19;;;;;;;13.20;4.00;;;31.60;99.90;;;;;;4950051;28;20205;-73
2022/07/06 09:45:53;;;;;;;11.48;4.07;;;31.70;99.90;;;;;;4950362;28;20564;-70
2022/07/06 09:48:25;;;;;;;13.30;3.78;;;31.80;99.40;;;;;;4959214;28;20229;-71
2022/07/06 09:50:57;;;;;;;12.50;3.92;;;32.00;99.90;;;;;;4944494;28;20291;-71
2022/07/06 09:53:27;;;;;;;11.80;3.85;;;32.10;99.60;;;;;;4962026;28;20234;-70
2022/07/06 09:55:57;;;;;;;11.57;4.07;;;32.10;98.90;;;;;;4976076;28;20821;-71
2022/07/06 09:58:25;;;;;;;20.75;5.05;;;32.40;99.70;;;;;;4963039;28;20199;-69
2022/07/06 10:00:52;;;;;;;18.08;4.38;;;32.30;99.90;;;;;;4949280;28;20564;-73
2022/07/06 10:03:20;;;;;;;13.00;4.45;;;32.30;99.90;;;;;;4971162;28;20233;-70
2022/07/06 10:05:48;;;;;;;14.25;4.03;;;32.30;99.90;;;;;;4944359;28;20672;-70
2022/07/06 10:08:17;;;;;;;9.70;4.25;;;32.40;99.90;;;;;;4945527;28;20273;-71
2022/07/06 10:10:44;;;;;;;14.85;3.97;;;32.40;99.90;;;;;;4948383;28;20199;-69
2022/07/06 10:13:12;;;;;;;12.93;4.00;;;32.30;99.90;;;;;;4948326;28;20212;-72
2022/07/06 10:15:40;;;;;;;16.35;4.00;;;32.50;99.90;;;;;;4940202;28;20198;-70
2022/07/06 10:18:09;;;;;;;15.38;3.90;;;32.40;99.40;;;;;;4937611;28;20658;-69
2022/07/06 10:20:39;;;;;;;13.65;4.18;;;32.50;99.90;;;;;;4958995;28;20269;-73
2022/07/06 10:23:08;;;;;;;13.07;3.92;;;32.50;99.90;;;;;;4960162;28;20853;-72
2022/07/06 10:25:35;;;;;;;10.32;4.18;;;32.60;99.70;;;;;;4960103;28;20277;-73
2022/07/06 10:28:02;;;;;;;14.57;4.43;;;32.70;99.70;;;;;;4949508;28;20210;-69
2022/07/06 10:30:31;;;;;;;16.05;4.50;;;32.60;99.90;;;;;;4929181;29;20722;-73
2022/07/06 10:33:00;;;;;;;10.88;4.00;;;32.70;99.90;;;;;;4942312;29;20218;-71
2022/07/06 10:35:26;;;;;;;12.20;4.10;;;32.80;99.90;;;;;;4940306;29;20199;-70
2022/07/06 10:38:07;;;;;;;15.05;4.50;;;32.70;99.80;;;;;;4948376;28;20310;-71
2022/07/06 10:43:36;;;;;;;17.52;5.05;;;32.70;99.90;;;;;;4947205;29;20187;-71
2022/07/06 10:46:15;;;;;;;11.77;4.13;;;32.60;99.70;;;;;;4959465;28;20190;-70
2022/07/06 10:48:48;;;;;;;13.07;4.35;;;32.60;99.80;;;;;;4948675;29;20206;-72
2022/07/06 10:51:28;;;;;;;11.43;4.13;;;32.70;99.90;;;;;;4963687;28;20595;-70
2022/07/06 10:54:04;;;;;;;12.70;4.22;;;32.70;99.70;;;;;;4945457;28;20199;-70
2022/07/06 10:56:47;;;;;;;13.38;3.80;;;32.60;99.90;;;;;;4948249;28;20211;-70
2022/07/06 10:59:22;;;;;;;14.02;4.00;;;32.70;99.60;;;;;;4969619;28;20183;-70
2022/07/06 11:02:17;;;;;;;11.30;3.88;;;32.80;99.90;;;;;;4951838;28;20198;-71
2022/07/06 11:04:48;;;;;;;16.67;4.80;;;32.80;99.80;;;;;;4947312;28;20265;-70
2022/07/06 11:07:18;;;;;;;10.68;3.65;;;32.80;99.40;;;;;;4950096;29;20720;-76
2022/07/06 11:09:59;;;;;;;13.75;4.30;;;32.90;99.70;;;;;;4943898;28;20659;-72
2022/07/06 11:12:26;;;;;;;13.73;4.00;;;32.90;99.70;;;;;;4945941;28;20218;-68
2022/07/06 11:14:53;;;;;;;13.05;3.78;;;32.80;98.80;;;;;;4953081;28;20194;-69
2022/07/06 11:17:20;;;;;;;11.18;4.05;;;32.80;98.30;;;;;;4969125;28;20214;-69
2022/07/06 11:20:08;;;;;;;17.67;3.83;;;32.70;97.20;;;;;;4961632;28;20207;-67
2022/07/06 11:22:38;;;;;;;12.48;4.15;;;32.70;97.90;;;;;;4937232;29;20290;-67
2022/07/06 11:25:06;;;;;;;9.45;3.90;;;32.80;99.00;;;;;;4954904;29;20652;-68
2022/07/06 11:27:34;;;;;;;9.30;3.85;;;32.80;99.10;;;;;;4962521;28;20250;-69
2022/07/06 11:30:02;;;;;;;9.82;3.28;;;32.60;98.70;;;;;;4955186;28;20190;-69
2022/07/06 11:32:29;;;;;;;9.02;3.42;;;32.70;97.40;;;;;;4966744;28;20199;-68
2022/07/06 11:34:56;;;;;;;8.73;3.53;;;32.80;98.30;;;;;;4952609;28;20674;-68
2022/07/06 11:37:23;;;;;;;9.40;3.50;;;32.70;97.60;;;;;;4952805;28;20305;-68
2022/07/06 11:39:49;;;;;;;17.33;3.92;;;32.80;97.80;;;;;;4954649;29;20293;-68
2022/07/06 11:42:18;;;;;;;10.43;3.35;;;32.90;99.20;;;;;;4955381;28;20187;-67
2022/07/06 11:44:46;;;;;;;10.63;3.40;;;32.80;96.80;;;;;;4955201;29;20191;-69
2022/07/06 11:47:16;;;;;;;16.85;3.97;;;32.70;96.30;;;;;;4952232;28;20257;-69
2022/07/06 11:49:45;;;;;;;8.63;3.03;;;32.70;96.40;;;;;;4970672;28;20194;-67
2022/07/06 11:52:14;;;;;;;11.43;3.75;;;32.70;96.80;;;;;;4965515;28;20245;-67
2022/07/06 11:54:43;;;;;;;13.82;4.00;;;32.60;96.80;;;;;;4969166;28;20872;-67
2022/07/06 11:57:11;;;;;;;8.63;3.90;;;32.70;97.30;;;;;;4950058;29;20319;-67
2022/07/06 11:59:42;;;;;;;12.48;4.20;;;32.70;96.80;;;;;;4946464;28;20195;-68
2022/07/06 12:02:12;;;;;;;10.40;4.07;;;32.80;97.40;;;;;;4950733;28;20195;-67
2022/07/06 12:04:44;;;;;;;10.32;3.80;;;32.90;96.60;;;;;;4967071;28;20273;-67
2022/07/06 12:07:17;;;;;;;13.27;3.80;;;32.80;97.50;;;;;;4952104;28;20198;-67
2022/07/06 12:09:47;;;;;;;14.90;4.18;;;32.70;98.70;;;;;;4948131;29;20217;-67
2022/07/06 12:12:16;;;;;;;17.08;3.78;;;32.60;98.80;;;;;;4951018;28;20325;-67
2022/07/06 12:14:43;;;;;;;12.95;3.80;;;32.80;97.90;;;;;;4951008;28;20691;-68
2022/07/06 12:17:13;;;;;;;8.07;3.17;;;32.70;97.00;;;;;;4936501;29;20226;-66
2022/07/06 12:19:41;;;;;;;7.78;3.05;;;32.80;94.80;;;;;;4951177;28;20198;-68
2022/07/06 12:22:09;;;;;;;11.73;3.47;;;32.70;94.90;;;;;;4950784;29;20191;-68
2022/07/06 12:24:37;;;;;;;10.68;3.38;;;32.70;94.10;;;;;;4951247;28;20242;-67
2022/07/06 12:27:34;;;;;;;8.38;3.10;;;32.60;94.50;;;;;;4954981;28;20195;-67
2022/07/06 12:30:11;;;;;;;9.35;3.08;;;32.60;93.20;;;;;;4947516;29;20238;-68
2022/07/06 12:32:37;;;;;;;10.43;2.95;;;32.60;91.80;;;;;;4950174;29;20289;-66
2022/07/06 12:35:09;;;;;;;7.10;2.97;;;32.70;91.60;;;;;;4950870;28;20203;-68
2022/07/06 12:37:36;;;;;;;7.07;3.10;;;32.60;91.80;;;;;;4949577;28;20302;-68
2022/07/06 12:40:13;;;;;;;8.05;3.08;;;32.60;91.80;;;;;;4929713;29;20227;-67
2022/07/06 12:42:49;;;;;;;5.95;2.75;;;32.60;91.10;;;;;;4944124;29;20222;-68
2022/07/06 12:45:16;;;;;;;6.25;2.67;;;32.50;88.30;;;;;;4963315;28;20194;-66
2022/07/06 12:48:05;;;;;;;5.80;2.78;;;32.40;87.60;;;;;;4967285;28;20194;-67
2022/07/06 12:50:35;;;;;;;10.27;2.75;;;32.50;87.80;;;;;;4933448;29;20255;-66
2022/07/06 12:53:04;;;;;;;8.77;2.65;;;32.40;87.90;;;;;;4965301;28;20214;-67
2022/07/06 12:55:31;;;;;;;14.73;3.15;;;32.40;89.40;;;;;;4938095;29;20190;-67
2022/07/06 12:57:59;;;;;;;28.75;4.30;;;32.40;90.00;;;;;;4967131;28;20230;-67